Time;durP1;ratioP1;P1;durP2;ratioP2;P2;SDS_P1;SDS_P2;PMS_P1;PMS_P2;Temp;Humidity;BMP_temperature;BMP_pressure;BME280_temperature;BME280_humidity;BME280_pressure;Samples;Min_cycle;Max_cycle;Signal;HPM_P1;HPM_P2
2023/01/22 00:01:39;;;;;;;18.60;11.35;;;;;;;-0.01;76.08;97244.13;6245499;23;20486;-78
2023/01/22 00:04:06;;;;;;;16.75;10.55;;;;;;;-0.02;75.90;97239.13;6245233;23;20359;-80
2023/01/22 00:06:34;;;;;;;15.98;10.07;;;;;;;-0.06;75.56;97235.94;6245361;23;20024;-78
2023/01/22 00:09:03;;;;;;;17.17;10.85;;;;;;;-0.07;76.65;97238.59;6244528;23;20028;-77
2023/01/22 00:11:31;;;;;;;17.08;10.90;;;;;;;-0.04;76.55;97233.28;6246286;23;20024;-78
2023/01/22 00:13:58;;;;;;;16.83;10.88;;;;;;;-0.03;76.14;97230.59;6246020;23;20020;-78
2023/01/22 00:16:26;;;;;;;16.27;10.95;;;;;;;0.01;76.16;97235.53;6245994;23;20016;-78
2023/01/22 00:18:53;;;;;;;16.25;10.30;;;;;;;0.00;76.10;97234.72;6245331;23;20024;-77
2023/01/22 00:21:21;;;;;;;13.50;9.02;;;;;;;0.01;76.42;97227.84;6246241;23;20020;-78
2023/01/22 00:23:49;;;;;;;16.13;10.40;;;;;;;-0.01;76.13;97233.88;6245295;23;20475;-78
2023/01/22 00:26:19;;;;;;;18.58;11.82;;;;;;;-0.04;75.63;97234.09;6245873;23;20024;-77
2023/01/22 00:28:47;;;;;;;16.23;10.52;;;;;;;-0.02;76.14;97231.44;6245021;23;20099;-78
2023/01/22 00:31:16;;;;;;;16.08;10.40;;;;;;;-0.04;76.09;97223.84;6246112;23;20026;-77
2023/01/22 00:36:18;;;;;;;15.82;10.73;;;;;;;-0.09;75.79;97222.47;6184373;23;20017;-78
2023/01/22 00:38:47;;;;;;;18.58;10.90;;;;;;;-0.10;76.03;97226.78;6184357;23;20346;-78
2023/01/22 00:41:16;;;;;;;17.65;10.63;;;;;;;-0.07;76.24;97218.88;6185084;23;20505;-78
2023/01/22 00:43:45;;;;;;;15.73;10.05;;;;;;;-0.05;76.78;97224.75;6185132;23;20131;-78
2023/01/22 00:46:14;;;;;;;18.92;11.30;;;;;;;-0.03;76.33;97219.50;6185087;23;20029;-78
2023/01/22 00:48:44;;;;;;;15.50;10.13;;;;;;;-0.05;76.35;97226.50;6184205;23;20024;-78
2023/01/22 00:51:13;;;;;;;18.42;11.13;;;;;;;-0.05;76.12;97221.34;6185091;23;20021;-78
2023/01/22 00:53:42;;;;;;;16.48;10.52;;;;;;;-0.07;75.54;97221.44;6185133;23;20021;-78
2023/01/22 00:56:11;;;;;;;15.98;10.77;;;;;;;-0.06;75.66;97220.53;6185427;23;20397;-78
2023/01/22 00:58:38;;;;;;;15.35;10.68;;;;;;;-0.08;76.19;97216.44;6184426;23;20021;-78
2023/01/22 01:01:08;;;;;;;13.13;9.65;;;;;;;-0.07;76.47;97218.88;6184994;23;20021;-78
2023/01/22 01:03:36;;;;;;;15.30;10.48;;;;;;;-0.05;76.10;97214.47;6184789;23;20088;-78
2023/01/22 01:06:07;;;;;;;14.68;10.80;;;;;;;-0.04;76.65;97223.03;6184631;23;20023;-78
2023/01/22 01:08:36;;;;;;;16.42;10.05;;;;;;;-0.02;76.69;97227.13;6183975;23;20088;-78
2023/01/22 01:11:06;;;;;;;17.73;10.55;;;;;;;0.02;77.11;97219.22;6185022;23;20025;-78
2023/01/22 01:13:37;;;;;;;19.13;11.38;;;;;;;0.01;76.83;97215.84;6189488;23;20093;-78
2023/01/22 01:16:09;;;;;;;16.88;10.98;;;;;;;0.02;76.83;97216.66;6196443;23;20095;-78
2023/01/22 01:18:37;;;;;;;15.93;10.85;;;;;;;0.01;76.80;97215.00;6203842;23;20040;-78
2023/01/22 01:21:06;;;;;;;15.52;10.27;;;;;;;0.02;76.75;97211.50;6187682;23;20048;-78
2023/01/22 01:23:35;;;;;;;16.17;10.63;;;;;;;0.07;77.07;97219.75;6186754;23;20096;-78
2023/01/22 01:26:05;;;;;;;16.88;10.60;;;;;;;0.08;77.32;97221.38;6187021;23;20027;-78
2023/01/22 01:28:34;;;;;;;17.63;11.35;;;;;;;0.06;76.12;97224.03;6186356;23;20027;-78
2023/01/22 01:31:03;;;;;;;16.73;10.57;;;;;;;0.03;75.96;97224.25;6186963;23;20024;-78
2023/01/22 01:33:33;;;;;;;18.60;11.00;;;;;;;0.02;76.16;97220.03;6186737;23;20096;-78
2023/01/22 01:36:01;;;;;;;18.08;11.57;;;;;;;0.05;76.27;97222.41;6186440;23;20457;-78
2023/01/22 01:38:29;;;;;;;17.27;11.20;;;;;;;0.08;76.54;97213.69;6186109;23;20401;-78
2023/01/22 01:40:57;;;;;;;17.80;11.82;;;;;;;0.09;76.66;97216.16;6187056;23;20032;-78
2023/01/22 01:43:25;;;;;;;18.90;11.57;;;;;;;0.09;76.67;97216.16;6187275;23;20390;-78
2023/01/22 01:45:53;;;;;;;19.65;12.45;;;;;;;0.09;76.23;97217.88;6186845;23;20029;-78
2023/01/22 01:48:29;;;;;;;20.30;12.45;;;;;;;0.09;76.99;97223.00;6186231;23;20051;-78
2023/01/22 01:51:04;;;;;;;18.75;12.55;;;;;;;0.09;77.11;97223.00;6186614;23;20025;-78
2023/01/22 01:53:33;;;;;;;21.70;13.13;;;;;;;0.10;76.74;97219.53;6186426;23;20104;-78
2023/01/22 01:56:03;;;;;;;20.27;13.25;;;;;;;0.07;76.14;97222.31;6186980;23;20087;-78
2023/01/22 01:58:33;;;;;;;18.90;12.57;;;;;;;0.04;76.74;97220.75;6185560;23;20453;-78
2023/01/22 02:01:07;;;;;;;22.27;12.70;;;;;;;0.04;76.87;97222.50;6187029;23;20052;-78
2023/01/22 02:03:35;;;;;;;20.85;12.68;;;;;;;0.03;76.97;97218.31;6186881;23;20024;-78
2023/01/22 02:06:04;;;;;;;17.58;11.48;;;;;;;0.05;77.32;97221.59;6186399;23;20361;-78
2023/01/22 02:08:32;;;;;;;21.00;12.65;;;;;;;0.07;77.32;97215.44;6186087;23;20028;-78
2023/01/22 02:11:00;;;;;;;19.55;13.02;;;;;;;0.08;76.78;97216.25;6186850;23;20060;-78
2023/01/22 02:13:32;;;;;;;22.02;14.02;;;;;;;0.08;76.25;97211.13;6186773;23;20021;-78
2023/01/22 02:15:59;;;;;;;20.73;13.63;;;;;;;0.08;76.26;97216.25;6186712;23;20100;-78
2023/01/22 02:18:27;;;;;;;22.70;13.65;;;;;;;0.08;76.63;97216.25;6185900;23;20025;-78
2023/01/22 02:20:58;;;;;;;22.25;13.23;;;;;;;0.08;77.42;97219.63;6186299;23;20017;-78
2023/01/22 02:23:26;;;;;;;20.90;13.35;;;;;;;0.08;76.95;97221.38;6186112;23;20491;-78
2023/01/22 02:25:54;;;;;;;17.50;11.82;;;;;;;0.11;76.96;97226.28;6185895;23;20334;-78
2023/01/22 02:28:22;;;;;;;18.13;12.85;;;;;;;0.11;76.27;97226.28;6185512;23;20025;-78
2023/01/22 02:30:50;;;;;;;19.70;13.40;;;;;;;0.09;75.89;97220.44;6186762;23;20020;-78
2023/01/22 02:33:17;;;;;;;19.42;12.18;;;;;;;0.09;76.31;97223.00;6186364;23;20024;-78
2023/01/22 02:35:45;;;;;;;21.15;13.55;;;;;;;0.09;75.76;97228.13;6185863;23;20025;-79
2023/01/22 02:38:14;;;;;;;22.58;13.45;;;;;;;0.03;75.32;97220.88;6186430;23;20021;-78
2023/01/22 02:40:47;;;;;;;22.67;14.15;;;;;;;-0.03;75.13;97215.19;6187468;23;20470;-78
2023/01/22 02:43:16;;;;;;;21.60;13.45;;;;;;;-0.02;75.59;97221.19;6187519;23;20035;-78
2023/01/22 02:45:43;;;;;;;20.83;13.02;;;;;;;-0.06;75.64;97212.84;6186262;23;20101;-78
2023/01/22 02:48:11;;;;;;;19.83;12.80;;;;;;;-0.05;75.83;97206.78;6185258;23;20027;-78
2023/01/22 02:50:39;;;;;;;19.17;12.77;;;;;;;-0.03;76.38;97204.94;6186128;23;20406;-78
2023/01/22 02:53:06;;;;;;;20.70;13.30;;;;;;;0.01;76.70;97200.44;6186643;23;20025;-78
2023/01/22 02:55:35;;;;;;;21.70;13.95;;;;;;;0.03;76.39;97205.47;6185884;23;20033;-78
2023/01/22 02:58:03;;;;;;;21.98;13.13;;;;;;;0.02;75.78;97206.38;6184749;23;20473;-78
2023/01/22 03:00:31;;;;;;;23.30;13.25;;;;;;;-0.01;75.83;97197.97;6185910;23;20017;-78
2023/01/22 03:02:58;;;;;;;21.55;13.73;;;;;;;0.02;75.66;97206.38;6186086;23;20021;-78
2023/01/22 03:05:26;;;;;;;21.95;13.90;;;;;;;0.02;75.48;97196.13;6186367;23;20024;-78
2023/01/22 03:07:53;;;;;;;20.38;13.45;;;;;;;0.02;75.48;97203.81;6185140;23;20032;-78
2023/01/22 03:10:21;;;;;;;21.17;13.88;;;;;;;-0.01;75.34;97204.84;6186013;23;20365;-78
2023/01/22 03:21:14;;;;;;;18.75;12.57;;;;;;;-0.12;76.82;97210.69;6185969;23;20025;-78
2023/01/22 03:23:42;;;;;;;21.40;13.00;;;;;;;-0.12;76.29;97208.13;6185694;23;20075;-78
2023/01/22 03:26:10;;;;;;;21.33;13.65;;;;;;;-0.11;76.35;97214.06;6185381;23;20023;-78
2023/01/22 03:28:39;;;;;;;22.88;13.70;;;;;;;-0.10;76.55;97213.97;6185203;23;20020;-78
2023/01/22 03:31:08;;;;;;;24.60;14.40;;;;;;;-0.10;76.04;97213.97;6186094;23;20021;-78
2023/01/22 03:33:36;;;;;;;24.52;14.00;;;;;;;-0.13;75.98;97213.34;6185845;23;20025;-78
2023/01/22 03:36:06;;;;;;;22.98;14.88;;;;;;;-0.12;75.74;97215.00;6185296;23;20025;-78
2023/01/22 03:38:34;;;;;;;22.25;13.05;;;;;;;-0.10;76.33;97216.53;6185247;23;20417;-78
2023/01/22 03:41:03;;;;;;;18.17;11.98;;;;;;;-0.05;76.79;97218.78;6185546;23;20027;-78
2023/01/22 03:43:31;;;;;;;21.15;13.82;;;;;;;-0.03;76.54;97212.63;6185722;23;20027;-78
2023/01/22 03:46:05;;;;;;;21.63;13.15;;;;;;;0.02;75.71;97211.50;6185760;23;20017;-78
2023/01/22 03:48:33;;;;;;;19.73;12.40;;;;;;;0.04;76.04;97209.69;6184873;23;20032;-78
2023/01/22 03:51:05;;;;;;;20.80;12.60;;;;;;;0.07;76.76;97210.31;6185216;23;20017;-78
2023/01/22 03:53:33;;;;;;;21.08;12.48;;;;;;;0.12;76.61;97212.56;6186075;23;20032;-78
2023/01/22 03:56:03;;;;;;;17.10;11.82;;;;;;;0.16;77.11;97219.13;6185565;23;20021;-78
2023/01/22 03:58:31;;;;;;;21.35;12.85;;;;;;;0.19;77.34;97216.34;6184694;23;20071;-78
2023/01/22 04:01:01;;;;;;;23.27;13.57;;;;;;;0.17;76.38;97211.31;6185964;23;20027;-78
2023/01/22 04:03:30;;;;;;;23.98;13.82;;;;;;;0.13;76.37;97216.75;6184844;23;20056;-78
2023/01/22 04:05:59;;;;;;;23.98;15.80;;;;;;;0.09;76.69;97213.59;6185421;23;20021;-78
2023/01/22 04:08:28;;;;;;;23.23;14.35;;;;;;;0.10;76.90;97219.53;6184974;23;20028;-78
2023/01/22 04:10:57;;;;;;;23.73;14.57;;;;;;;0.11;77.30;97223.72;6186151;23;20017;-78
2023/01/22 04:13:26;;;;;;;24.67;15.52;;;;;;;0.11;76.68;97227.13;6185690;23;20017;-78
2023/01/22 04:15:53;;;;;;;25.67;14.48;;;;;;;0.12;76.97;97222.81;6185443;23;20108;-78
2023/01/22 04:18:21;;;;;;;22.70;14.07;;;;;;;0.16;77.28;97221.69;6185341;23;20043;-78
2023/01/22 04:20:51;;;;;;;23.70;15.25;;;;;;;0.18;77.00;97227.56;6185913;23;20100;-78
2023/01/22 04:23:19;;;;;;;22.40;14.38;;;;;;;0.19;77.04;97232.56;6185886;23;20360;-78
2023/01/22 04:25:47;;;;;;;25.10;14.93;;;;;;;0.22;77.29;97234.13;6185454;23;20352;-78
2023/01/22 04:28:16;;;;;;;27.80;15.70;;;;;;;0.21;77.31;97232.47;6185075;23;20025;-78
2023/01/22 04:30:45;;;;;;;22.95;15.18;;;;;;;0.21;77.25;97235.03;6185576;23;20017;-78
2023/01/22 04:33:13;;;;;;;25.63;14.27;;;;;;;0.20;76.83;97230.84;6185954;23;20024;-78
2023/01/22 04:35:41;;;;;;;25.88;15.45;;;;;;;0.18;76.71;97230.13;6185331;23;20027;-78
2023/01/22 04:38:13;;;;;;;22.77;14.98;;;;;;;0.19;77.19;97231.75;6184979;23;20108;-78
2023/01/22 04:40:41;;;;;;;22.80;15.73;;;;;;;0.22;76.74;97228.16;6185777;23;20025;-78
2023/01/22 04:43:10;;;;;;;23.60;15.30;;;;;;;0.21;77.10;97232.47;6185819;23;20028;-78
2023/01/22 04:45:38;;;;;;;26.38;15.48;;;;;;;0.23;76.87;97233.19;6185359;23;20028;-78
2023/01/22 04:48:07;;;;;;;25.85;15.45;;;;;;;0.20;76.62;97233.41;6184714;23;20104;-78
2023/01/22 04:50:35;;;;;;;25.48;15.93;;;;;;;0.16;76.36;97234.53;6207482;23;20025;-78
2023/01/22 04:53:03;;;;;;;25.73;15.43;;;;;;;0.13;76.50;97229.59;6212067;23;20009;-78
2023/01/22 04:55:33;;;;;;;25.38;16.42;;;;;;;0.13;76.84;97232.16;6212438;23;20009;-78
2023/01/22 04:58:01;;;;;;;26.73;15.77;;;;;;;0.15;77.12;97235.44;6190250;23;20052;-78
2023/01/22 05:00:30;;;;;;;30.13;16.63;;;;;;;0.14;76.11;97231.25;6187910;23;20108;-78
2023/01/22 05:02:58;;;;;;;26.92;14.68;;;;;;;0.13;76.71;97232.16;6188735;23;20021;-78
2023/01/22 05:05:27;;;;;;;27.98;16.05;;;;;;;0.13;76.35;97242.41;6187549;23;20021;-78
2023/01/22 05:07:55;;;;;;;27.35;15.80;;;;;;;0.14;76.09;97236.38;6186474;23;20190;-78
2023/01/22 05:10:22;;;;;;;25.30;16.20;;;;;;;0.15;76.33;97238.00;6187135;23;20021;-78
2023/01/22 05:12:52;;;;;;;30.65;18.63;;;;;;;0.14;76.46;97241.50;6187876;23;20103;-78
2023/01/22 05:15:19;;;;;;;30.13;15.73;;;;;;;0.14;76.50;97241.50;6186590;23;20040;-80
2023/01/22 05:17:52;;;;;;;28.83;17.80;;;;;;;0.15;76.82;97243.13;6186436;23;20445;-78
2023/01/22 05:20:19;;;;;;;29.30;15.75;;;;;;;0.19;76.80;97249.72;6187053;23;20028;-78
2023/01/22 05:22:48;;;;;;;28.42;15.98;;;;;;;0.17;77.06;97256.69;6187243;23;20025;-78
2023/01/22 05:25:15;;;;;;;24.50;14.00;;;;;;;0.18;77.21;97259.16;6187045;23;20059;-78
2023/01/22 05:27:43;;;;;;;29.85;17.02;;;;;;;0.19;77.12;97263.34;6187092;23;20021;-78
2023/01/22 05:30:13;;;;;;;27.20;16.98;;;;;;;0.22;77.25;97264.91;6187112;23;20056;-78
2023/01/22 05:32:41;;;;;;;26.17;14.95;;;;;;;0.24;77.30;97268.22;6186556;23;20356;-78
2023/01/22 05:35:09;;;;;;;26.23;15.15;;;;;;;0.25;76.61;97281.84;6186723;23;20036;-78
2023/01/22 05:37:36;;;;;;;30.65;16.20;;;;;;;0.23;76.31;97276.81;6186762;23;20092;-78
2023/01/22 05:40:05;;;;;;;27.02;15.88;;;;;;;0.24;76.65;97272.50;6185918;23;20021;-78
2023/01/22 05:42:35;;;;;;;26.42;14.73;;;;;;;0.25;76.84;97274.97;6186955;23;20357;-78
2023/01/22 05:45:03;;;;;;;26.73;16.20;;;;;;;0.26;76.89;97279.16;6186516;23;20031;-78
2023/01/22 05:47:31;;;;;;;28.08;16.20;;;;;;;0.26;77.46;97284.28;6186557;23;20548;-78
2023/01/22 05:49:59;;;;;;;30.75;17.45;;;;;;;0.22;76.93;97275.19;6186040;23;20028;-78
2023/01/22 05:52:27;;;;;;;32.05;17.65;;;;;;;0.19;76.85;97290.75;6186786;23;20357;-78
2023/01/22 05:54:54;;;;;;;29.08;16.83;;;;;;;0.17;77.04;97292.59;6186162;23;20028;-78
2023/01/22 05:57:22;;;;;;;29.50;16.77;;;;;;;0.19;76.53;97290.75;6186374;23;20357;-78
2023/01/22 05:59:49;;;;;;;32.53;17.20;;;;;;;0.20;76.78;97292.41;6186194;23;20104;-78
2023/01/22 06:02:20;;;;;;;30.27;16.67;;;;;;;0.21;77.00;97294.03;6186722;23;20017;-81
2023/01/22 06:04:49;;;;;;;28.20;15.63;;;;;;;0.25;77.37;97295.50;6186072;23;20021;-81
2023/01/22 06:07:16;;;;;;;26.60;16.65;;;;;;;0.27;77.42;97297.97;6185869;23;20028;-81
2023/01/22 06:09:43;;;;;;;27.85;15.95;;;;;;;0.27;77.17;97293.66;6185759;23;20461;-78
2023/01/22 06:12:11;;;;;;;29.98;16.90;;;;;;;0.29;77.37;97303.81;6187261;23;20021;-78
2023/01/22 06:14:39;;;;;;;29.10;16.23;;;;;;;0.28;77.16;97299.59;6186679;23;20028;-78
2023/01/22 06:17:06;;;;;;;30.42;15.52;;;;;;;0.31;77.69;97302.78;6186088;23;20025;-78
2023/01/22 06:19:34;;;;;;;30.45;17.20;;;;;;;0.37;78.22;97301.56;6185661;23;20079;-78
2023/01/22 06:22:03;;;;;;;30.75;16.75;;;;;;;0.41;78.31;97301.25;6186859;23;20103;-78
2023/01/22 06:24:30;;;;;;;28.42;17.40;;;;;;;0.44;77.93;97305.38;6186200;23;20040;-78
2023/01/22 06:26:58;;;;;;;32.58;17.67;;;;;;;0.44;77.73;97304.53;6185843;23;20014;-78
2023/01/22 06:29:25;;;;;;;30.95;16.90;;;;;;;0.40;77.81;97302.19;6185944;23;20081;-78
2023/01/22 06:31:53;;;;;;;31.15;17.75;;;;;;;0.40;77.45;97299.63;6186521;23;20032;-78
2023/01/22 06:34:20;;;;;;;33.80;17.85;;;;;;;0.36;77.15;97303.31;6185929;22;20381;-86
2023/01/22 06:36:50;;;;;;;30.77;17.80;;;;;;;0.32;77.39;97312.13;6222712;23;20071;-83
2023/01/22 06:39:20;;;;;;;33.83;18.73;;;;;;;0.28;77.45;97305.53;6219191;23;20020;-83
2023/01/22 06:41:48;;;;;;;31.35;17.48;;;;;;;0.28;76.67;97315.81;6220334;23;20017;-84
2023/01/22 06:44:17;;;;;;;33.90;18.05;;;;;;;0.21;76.91;97314.56;6219876;23;20016;-83
2023/01/22 06:46:46;;;;;;;29.02;17.13;;;;;;;0.20;76.70;97315.50;6220155;23;20022;-84
2023/01/22 06:49:14;;;;;;;32.25;17.70;;;;;;;0.19;76.76;97322.38;6219550;23;20099;-83
2023/01/22 06:51:44;;;;;;;30.77;15.95;;;;;;;0.19;77.19;97318.97;6220579;23;20137;-84
2023/01/22 06:54:13;;;;;;;27.00;16.13;;;;;;;0.23;77.08;97323.00;6225393;23;20349;-84
2023/01/22 06:56:43;;;;;;;34.65;17.90;;;;;;;0.24;77.23;97327.22;6226824;23;20095;-84
2023/01/22 06:59:13;;;;;;;30.15;16.02;;;;;;;0.23;77.21;97325.56;6230875;23;20016;-83
2023/01/22 07:01:40;;;;;;;28.65;16.60;;;;;;;0.23;77.15;97328.13;6237985;23;20048;-82
2023/01/22 07:04:11;;;;;;;32.75;18.23;;;;;;;0.25;77.69;97340.88;6237083;23;20000;-83
2023/01/22 07:06:39;;;;;;;27.50;15.63;;;;;;;0.27;77.70;97334.72;6224741;23;20097;-82
2023/01/22 07:09:07;;;;;;;23.40;14.77;;;;;;;0.32;77.72;97334.41;6221302;23;20504;-83
2023/01/22 07:11:36;;;;;;;24.85;15.63;;;;;;;0.34;77.64;97340.25;6221021;23;20403;-82
2023/01/22 07:14:10;;;;;;;26.42;14.90;;;;;;;0.37;78.13;97343.47;6221063;23;20096;-83
2023/01/22 07:16:40;;;;;;;26.38;15.93;;;;;;;0.34;77.40;97341.06;6221226;23;20032;-83
2023/01/22 07:19:08;;;;;;;27.92;17.02;;;;;;;0.35;77.45;97352.16;6220644;23;20343;-83
2023/01/22 07:21:36;;;;;;;26.10;15.52;;;;;;;0.39;77.72;97349.31;6221535;23;20039;-83
2023/01/22 07:24:06;;;;;;;29.00;17.33;;;;;;;0.38;77.74;97350.22;6221275;23;20072;-84
2023/01/22 07:26:35;;;;;;;27.90;15.98;;;;;;;0.43;78.00;97354.25;6221422;23;20013;-83
2023/01/22 07:29:12;;;;;;;27.67;16.02;;;;;;;0.46;77.92;97356.59;6221552;23;20040;-82
2023/01/22 07:31:45;;;;;;;27.67;16.02;;;;;;;0.46;77.88;97360.00;6222469;23;20027;-83
2023/01/22 07:34:19;;;;;;;30.42;16.10;;;;;;;0.49;77.32;97364.13;6221141;23;20021;-83
2023/01/22 07:37:03;;;;;;;28.73;16.55;;;;;;;0.50;77.24;97365.75;6220936;23;20020;-84
2023/01/22 07:42:28;;;;;;;28.42;15.82;;;;;;;0.51;77.78;97373.34;6216994;23;20017;-82
2023/01/22 07:45:10;;;;;;;32.58;17.85;;;;;;;0.53;78.10;97375.84;6221186;23;20031;-84
2023/01/22 07:47:43;;;;;;;27.88;15.43;;;;;;;0.48;77.34;97372.72;6221156;23;20020;-83
2023/01/22 07:50:19;;;;;;;27.27;16.30;;;;;;;0.46;77.69;97372.84;6220451;23;20020;-83
2023/01/22 07:52:50;;;;;;;;;;;;;;;0.48;77.97;97371.00;6222591;23;20038;-83
2023/01/22 07:55:30;;;;;;;27.35;15.07;;;;;;;0.39;77.36;97380.13;6220340;23;19923;-83
2023/01/22 07:57:59;;;;;;;25.10;14.57;;;;;;;0.40;77.50;97374.06;6221370;23;20062;-83
2023/01/22 08:00:38;;;;;;;27.33;16.23;;;;;;;0.43;77.42;97375.59;6234592;22;20017;-86
2023/01/22 08:03:14;;;;;;;34.03;17.92;;;;;;;0.46;77.37;97389.97;6241732;22;20035;-88
2023/01/22 08:05:51;;;;;;;29.10;16.38;;;;;;;0.40;76.42;97389.44;6241158;22;20048;-88
2023/01/22 08:08:22;;;;;;;30.45;17.23;;;;;;;0.38;77.00;97385.34;6238870;23;20012;-86
2023/01/22 08:11:02;;;;;;;28.33;16.83;;;;;;;0.40;77.91;97392.00;6237441;23;20027;-84
2023/01/22 08:13:33;;;;;;;31.33;16.90;;;;;;;0.44;77.91;97386.69;6224274;23;20044;-83
2023/01/22 08:16:16;;;;;;;29.40;16.70;;;;;;;0.46;77.88;97387.41;6221710;23;20024;-83
2023/01/22 08:18:52;;;;;;;31.40;16.92;;;;;;;0.49;78.21;97385.47;6228131;23;20012;-83
2023/01/22 08:21:40;;;;;;;29.02;15.98;;;;;;;0.51;78.07;97388.75;6222279;23;20016;-83
2023/01/22 08:24:20;;;;;;;30.10;18.15;;;;;;;0.50;77.56;97386.28;6224173;23;20027;-83
2023/01/22 08:26:57;;;;;;;31.33;17.27;;;;;;;0.48;77.97;97388.13;6224430;23;20092;-83
2023/01/22 08:29:38;;;;;;;32.15;18.02;;;;;;;0.51;78.37;97393.88;6226428;23;20084;-83
2023/01/22 08:32:16;;;;;;;34.20;17.23;;;;;;;0.52;78.10;97387.81;6224957;23;20081;-82
2023/01/22 08:34:53;;;;;;;34.75;17.83;;;;;;;0.51;77.42;97393.06;6223464;23;20484;-82
2023/01/22 08:37:31;;;;;;;35.88;19.30;;;;;;;0.49;77.65;97393.16;6224960;23;20012;-83
2023/01/22 08:40:07;;;;;;;32.58;16.58;;;;;;;0.46;77.09;97398.50;6225344;23;20028;-83
2023/01/22 08:42:35;;;;;;;32.15;17.52;;;;;;;0.40;77.17;97394.59;6222754;23;20406;-82
2023/01/22 08:45:03;;;;;;;31.42;16.60;;;;;;;0.40;77.57;97402.28;6228356;23;20044;-82
2023/01/22 08:47:32;;;;;;;31.30;17.33;;;;;;;0.43;78.07;97398.69;6232193;23;20032;-87
2023/01/22 08:50:01;;;;;;;33.20;16.75;;;;;;;0.46;77.76;97407.94;6230542;23;20103;-81
2023/01/22 08:52:29;;;;;;;27.52;16.13;;;;;;;0.45;77.83;97393.47;6230290;23;20017;-81
2023/01/22 08:54:57;;;;;;;30.92;16.95;;;;;;;0.46;77.76;97402.81;6217789;23;20031;-85
2023/01/22 08:57:24;;;;;;;30.85;17.38;;;;;;;0.47;77.75;97399.31;6219437;23;20024;-82
2023/01/22 08:59:52;;;;;;;33.08;17.55;;;;;;;0.47;77.88;97399.31;6218555;23;20103;-82
2023/01/22 09:02:28;;;;;;;35.47;16.90;;;;;;;0.45;77.59;97411.44;6219450;23;20052;-81
2023/01/22 09:04:57;;;;;;;28.95;17.00;;;;;;;0.47;77.89;97405.28;6220400;23;20025;-82
2023/01/22 09:07:24;;;;;;;31.42;17.27;;;;;;;0.49;77.97;97412.88;6219801;23;20096;-81
2023/01/22 09:09:52;;;;;;;33.40;18.13;;;;;;;0.45;77.67;97419.13;6219203;23;20024;-82
2023/01/22 09:12:20;;;;;;;32.90;17.75;;;;;;;0.43;78.00;97419.22;6219455;23;20031;-80
2023/01/22 09:14:47;;;;;;;31.75;16.48;;;;;;;0.44;78.44;97409.78;6219957;23;20024;-80
2023/01/22 09:17:15;;;;;;;28.95;16.25;;;;;;;0.46;78.13;97424.19;6219109;23;20020;-80
2023/01/22 09:19:42;;;;;;;31.98;16.85;;;;;;;0.45;77.72;97424.28;6217981;23;20027;-80
2023/01/22 09:22:11;;;;;;;30.85;15.77;;;;;;;0.44;78.41;97427.75;6219353;23;20502;-80
2023/01/22 09:24:39;;;;;;;29.45;16.08;;;;;;;0.45;78.19;97435.34;6219022;23;20107;-80
2023/01/22 09:27:07;;;;;;;32.65;17.77;;;;;;;0.44;77.98;97441.44;6218907;23;20021;-83
2023/01/22 09:29:35;;;;;;;33.75;17.33;;;;;;;0.45;77.91;97434.53;6218875;23;20116;-81
2023/01/22 09:32:03;;;;;;;33.45;17.23;;;;;;;0.45;78.35;97431.97;6219569;23;20021;-82
2023/01/22 09:34:32;;;;;;;31.25;17.20;;;;;;;0.47;78.84;97446.34;6219203;23;20029;-81
2023/01/22 09:37:04;;;;;;;36.92;17.88;;;;;;;0.48;78.56;97444.59;6217416;23;20040;-82
2023/01/22 09:39:32;;;;;;;36.65;17.88;;;;;;;0.48;79.02;97448.00;6218969;23;20020;-81
2023/01/22 09:42:03;;;;;;;37.67;17.25;;;;;;;0.48;78.32;97452.28;6220433;23;20031;-82
2023/01/22 09:44:37;;;;;;;31.98;16.85;;;;;;;0.46;78.91;97447.28;6219396;23;20020;-81
2023/01/22 09:47:09;;;;;;;34.63;18.27;;;;;;;0.51;79.13;97457.25;6218597;23;20021;-81
2023/01/22 09:49:43;;;;;;;39.65;19.48;;;;;;;0.50;78.43;97460.72;6217802;23;20023;-80
2023/01/22 09:52:11;;;;;;;34.95;18.25;;;;;;;0.49;78.10;97451.41;6218831;23;20028;-81
2023/01/22 09:54:41;;;;;;;36.22;19.20;;;;;;;0.47;78.39;97453.22;6217781;23;20021;-81
2023/01/22 09:57:12;;;;;;;33.72;17.88;;;;;;;0.46;78.57;97459.28;6219541;23;20103;-81
2023/01/22 09:59:57;;;;;;;35.63;19.05;;;;;;;0.52;78.45;97458.88;6219265;23;20031;-81
2023/01/22 10:02:30;;;;;;;35.58;18.33;;;;;;;0.56;78.13;97465.47;6217875;23;20039;-81
2023/01/22 10:05:02;;;;;;;36.70;19.33;;;;;;;0.57;77.87;97460.25;6218199;23;20016;-81
2023/01/22 10:07:33;;;;;;;29.60;15.50;;;;;;;0.64;78.65;97457.28;6218593;23;20039;-82
2023/01/22 10:10:18;;;;;;;35.13;18.83;;;;;;;0.68;78.20;97462.13;6217765;23;20031;-81
2023/01/22 10:12:49;;;;;;;34.13;18.25;;;;;;;0.69;78.22;97463.75;6218102;23;20023;-81
2023/01/22 10:15:20;;;;;;;32.13;17.48;;;;;;;0.74;78.18;97466.03;6217847;23;20027;-81
2023/01/22 10:17:48;;;;;;;30.95;17.27;;;;;;;0.76;77.69;97459.88;6217320;23;20022;-81
2023/01/22 10:20:19;;;;;;;31.38;18.00;;;;;;;0.75;78.34;97458.25;6216763;23;20017;-81
2023/01/22 10:22:48;;;;;;;33.50;18.05;;;;;;;0.80;78.57;97463.88;6217217;23;20069;-81
2023/01/22 10:25:17;;;;;;;32.90;18.15;;;;;;;0.83;77.92;97462.84;6217371;23;20096;-81
2023/01/22 10:27:46;;;;;;;29.58;16.50;;;;;;;0.85;77.98;97463.59;6216271;23;20017;-81
2023/01/22 10:30:21;;;;;;;31.02;16.73;;;;;;;0.88;78.56;97462.59;6216372;23;20017;-81
2023/01/22 10:32:58;;;;;;;30.35;17.00;;;;;;;0.93;78.64;97460.53;6217424;23;20025;-81
2023/01/22 10:35:26;;;;;;;28.65;16.88;;;;;;;0.96;78.04;97465.47;6217020;23;20461;-82
2023/01/22 10:37:56;;;;;;;31.13;16.70;;;;;;;0.98;78.41;97464.47;6217187;23;20020;-82
2023/01/22 10:40:29;;;;;;;30.70;17.60;;;;;;;1.00;77.48;97462.59;6217075;23;20400;-81
2023/01/22 10:43:02;;;;;;;30.27;17.02;;;;;;;0.99;77.46;97467.84;6224216;22;20040;-79
2023/01/22 10:45:30;;;;;;;;;;;;;;;1.03;77.88;97467.53;6244326;22;20004;-84
2023/01/22 10:48:06;;;;;;;31.40;16.88;;;;;;;1.02;77.85;97465.88;6243198;22;19934;-86
2023/01/22 10:50:33;;;;;;;34.63;18.15;;;;;;;1.05;78.61;97464.88;6232491;23;20028;-87
2023/01/22 10:53:03;;;;;;;34.47;19.35;;;;;;;1.09;79.03;97465.47;6229736;23;20091;-86
2023/01/22 10:55:39;;;;;;;33.50;17.63;;;;;;;1.10;79.07;97470.53;6226413;23;20469;-86
2023/01/22 10:58:16;;;;;;;28.70;15.43;;;;;;;1.14;77.97;97468.59;6226673;23;20480;-82
2023/01/22 11:00:44;;;;;;;28.98;16.20;;;;;;;1.15;77.83;97465.91;6224054;23;20021;-83
2023/01/22 11:03:21;;;;;;;31.27;17.23;;;;;;;1.15;77.48;97465.91;6222986;23;20025;-84
2023/01/22 11:05:55;;;;;;;26.77;15.23;;;;;;;1.15;76.91;97465.91;6223207;23;20103;-87
2023/01/22 11:08:28;;;;;;;24.92;13.55;;;;;;;1.16;77.40;97464.13;6224899;23;20020;-86
2023/01/22 11:11:02;;;;;;;23.60;12.98;;;;;;;1.15;77.59;97471.03;6225609;23;20346;-84
2023/01/22 11:13:38;;;;;;;24.15;13.73;;;;;;;1.14;76.57;97458.31;6227710;23;20032;-86
2023/01/22 11:16:15;;;;;;;27.25;13.52;;;;;;;1.08;76.00;97464.66;6225055;23;20092;-83
2023/01/22 11:18:46;;;;;;;22.40;13.85;;;;;;;1.07;76.82;97460.44;6223947;23;20103;-84
2023/01/22 11:21:16;;;;;;;27.88;14.55;;;;;;;1.09;76.85;97460.34;6225117;23;20028;-84
2023/01/22 11:23:49;;;;;;;22.77;13.80;;;;;;;1.08;76.39;97462.09;6224232;23;20024;-81
2023/01/22 11:26:27;;;;;;;25.13;15.20;;;;;;;1.10;76.24;97462.00;6222725;23;20055;-81
2023/01/22 11:29:03;;;;;;;22.17;13.15;;;;;;;1.12;76.67;97466.09;6218866;23;20027;-81
2023/01/22 11:31:53;;;;;;;22.85;12.55;;;;;;;1.15;77.14;97460.75;6218531;23;20055;-82
2023/01/22 11:34:38;;;;;;;24.33;13.60;;;;;;;1.16;75.98;97469.28;6217063;23;20071;-81
2023/01/22 11:37:12;;;;;;;23.83;12.52;;;;;;;1.17;76.85;97466.63;6219629;23;20023;-86
2023/01/22 11:39:54;;;;;;;21.60;13.27;;;;;;;1.21;77.24;97457.78;6234957;23;20035;-85
2023/01/22 11:42:35;;;;;;;22.45;12.95;;;;;;;1.21;76.06;97459.53;6236471;23;20011;-86
2023/01/22 11:45:15;;;;;;;20.05;11.77;;;;;;;1.18;75.41;97458.00;6227850;23;20453;-86
2023/01/22 11:47:55;;;;;;;23.02;12.20;;;;;;;1.19;75.97;97456.25;6239262;23;20028;-81
2023/01/22 11:50:27;;;;;;;18.08;11.02;;;;;;;1.20;75.53;97453.59;6238933;23;20075;-82
2023/01/22 11:53:01;;;;;;;;;;;;;;;1.22;75.38;97458.59;6226299;23;20100;-81